createdAt,value
2023-11-01T00:01:12.815Z,9.83
2023-11-01T00:03:39.991Z,11.47
2023-11-01T00:06:07.585Z,8.80
2023-11-01T00:08:34.765Z,7.87
2023-11-01T00:11:02.670Z,11.63
2023-11-01T00:13:29.721Z,11.60
2023-11-01T00:15:57.192Z,6.63
2023-11-01T00:18:24.406Z,7.30
2023-11-01T00:20:51.473Z,6.60
2023-11-01T00:23:19.426Z,7.90
2023-11-01T00:25:46.472Z,6.23
2023-11-01T00:28:13.541Z,4.90
2023-11-01T00:30:40.484Z,6.40
2023-11-01T00:33:07.657Z,3.30
2023-11-01T00:35:35.702Z,3.67
2023-11-01T00:38:06.420Z,5.67
2023-11-01T00:40:33.462Z,5.07
2023-11-01T00:43:00.564Z,5.23
2023-11-01T00:45:27.547Z,4.47
2023-11-01T00:47:54.554Z,10.80
2023-11-01T00:50:21.694Z,6.37
2023-11-01T00:52:48.662Z,8.23
2023-11-01T00:55:15.788Z,9.53
2023-11-01T00:57:43.861Z,13.17
2023-11-01T01:00:11.777Z,13.83
2023-11-01T01:02:38.889Z,13.30
2023-11-01T01:05:06.956Z,14.80
2023-11-01T01:07:34.241Z,15.07
2023-11-01T01:10:01.250Z,28.27
2023-11-01T01:12:29.284Z,21.77
2023-11-01T01:14:58.559Z,25.23
2023-11-01T01:17:26.833Z,21.50
2023-11-01T01:19:53.956Z,15.60
2023-11-01T01:22:24.569Z,17.60
2023-11-01T01:24:51.639Z,24.77
2023-11-01T01:27:19.680Z,17.40
2023-11-01T01:29:46.798Z,18.17
2023-11-01T01:32:13.796Z,19.07
2023-11-01T01:34:40.829Z,18.37
2023-11-01T01:37:07.834Z,16.90
2023-11-01T01:39:34.858Z,21.90
2023-11-01T01:42:02.006Z,16.03
2023-11-01T01:44:29.123Z,18.77
2023-11-01T01:46:57.817Z,20.70
2023-11-01T01:49:32.994Z,19.60
2023-11-01T01:52:05.622Z,13.67
2023-11-01T01:54:33.139Z,18.50
2023-11-01T01:57:00.338Z,19.93
2023-11-01T01:59:27.781Z,18.67
2023-11-01T02:01:57.282Z,15.63
2023-11-01T02:04:26.458Z,24.30
2023-11-01T02:06:54.299Z,20.27
2023-11-01T02:09:22.203Z,19.20
2023-11-01T02:11:49.689Z,19.70
2023-11-01T02:14:16.748Z,14.07
2023-11-01T02:16:43.860Z,22.23
2023-11-01T02:19:14.056Z,13.63
2023-11-01T02:21:41.062Z,19.83
2023-11-01T02:24:08.302Z,15.43
2023-11-01T02:26:35.435Z,15.00
2023-11-01T02:29:02.426Z,20.90
2023-11-01T02:31:29.523Z,21.33
2023-11-01T02:33:56.533Z,12.17
2023-11-01T02:36:23.597Z,13.63
2023-11-01T02:38:50.764Z,19.17
2023-11-01T02:41:18.068Z,15.57
2023-11-01T02:43:45.139Z,14.37
2023-11-01T02:46:12.335Z,12.43
2023-11-01T02:48:39.365Z,10.37
2023-11-01T02:51:06.565Z,19.37
2023-11-01T02:53:33.555Z,15.73
2023-11-01T02:56:00.956Z,13.07
2023-11-01T02:58:29.759Z,16.00
2023-11-01T03:00:56.918Z,15.77
2023-11-01T03:03:24.060Z,16.20
2023-11-01T03:05:51.208Z,13.90
2023-11-01T03:08:19.261Z,18.97
2023-11-01T03:10:46.274Z,16.03
2023-11-01T03:13:13.292Z,12.07
2023-11-01T03:15:40.331Z,17.87
2023-11-01T03:18:07.509Z,18.67
2023-11-01T03:20:34.898Z,16.20
2023-11-01T03:23:02.300Z,18.33
2023-11-01T03:25:29.564Z,16.43
2023-11-01T03:27:56.618Z,13.63
2023-11-01T03:30:23.648Z,13.80
2023-11-01T03:32:51.245Z,12.60
2023-11-01T03:35:18.501Z,19.47
2023-11-01T03:37:45.443Z,14.17
2023-11-01T03:40:12.597Z,15.93
2023-11-01T03:42:39.616Z,16.07
2023-11-01T03:45:07.676Z,17.53
2023-11-01T03:47:34.667Z,12.87
2023-11-01T03:50:01.821Z,11.50
2023-11-01T03:52:29.062Z,14.23
2023-11-01T03:54:56.161Z,16.90
2023-11-01T03:57:23.445Z,14.33
2023-11-01T03:59:50.422Z,16.37
2023-11-01T04:02:17.494Z,12.50
2023-11-01T04:04:50.464Z,15.57
2023-11-01T04:07:18.136Z,16.77
2023-11-01T04:09:45.116Z,18.80
2023-11-01T04:12:12.121Z,19.97
2023-11-01T04:14:39.176Z,14.63
2023-11-01T04:17:06.146Z,19.67
2023-11-01T04:19:33.234Z,14.90
2023-11-01T04:22:00.306Z,21.57
2023-11-01T04:24:27.303Z,13.53
2023-11-01T04:26:54.542Z,20.17
2023-11-01T04:29:21.626Z,18.63
2023-11-01T04:31:54.192Z,15.27
2023-11-01T04:34:21.312Z,18.97
2023-11-01T04:36:49.278Z,16.80
2023-11-01T04:39:16.314Z,16.27
2023-11-01T04:41:44.000Z,15.70
2023-11-01T04:44:11.087Z,18.07
2023-11-01T04:46:38.040Z,20.33
2023-11-01T04:49:05.451Z,19.20
2023-11-01T04:51:32.487Z,12.03
2023-11-01T04:53:59.569Z,13.80
2023-11-01T04:56:27.784Z,19.33
2023-11-01T04:58:55.589Z,13.50
2023-11-01T05:01:22.671Z,15.30
2023-11-01T05:03:53.859Z,13.80
2023-11-01T05:06:20.881Z,22.20
2023-11-01T05:08:48.124Z,21.17
2023-11-01T05:11:15.222Z,15.17
2023-11-01T05:13:42.192Z,13.63
2023-11-01T05:16:09.380Z,29.30
2023-11-01T05:18:36.529Z,20.23
2023-11-01T05:21:04.084Z,15.17
2023-11-01T05:23:31.174Z,16.53
2023-11-01T05:25:58.290Z,13.13
2023-11-01T05:28:25.369Z,20.03
2023-11-01T05:30:52.911Z,15.83
2023-11-01T05:33:22.784Z,17.57
2023-11-01T05:35:50.126Z,13.47
2023-11-01T05:38:17.288Z,20.43
2023-11-01T05:40:44.299Z,18.53
2023-11-01T05:43:11.878Z,20.83
2023-11-01T05:45:38.928Z,14.60
2023-11-01T05:48:09.990Z,16.63
2023-11-01T05:50:37.918Z,10.13
2023-11-01T05:53:29.681Z,15.93
2023-11-01T05:56:04.827Z,10.23
2023-11-01T05:58:36.826Z,20.20
2023-11-01T06:01:04.654Z,14.80
2023-11-01T06:03:32.392Z,16.70
2023-11-01T06:06:00.035Z,31.73
2023-11-01T06:08:27.613Z,10.67
2023-11-01T06:10:57.317Z,12.97
2023-11-01T06:13:24.403Z,16.70
2023-11-01T06:15:52.895Z,18.73
2023-11-01T06:18:22.172Z,11.20
2023-11-01T06:20:49.252Z,18.03
2023-11-01T06:23:16.295Z,13.03
2023-11-01T06:25:43.515Z,17.73
2023-11-01T06:28:11.277Z,18.97
2023-11-01T06:30:38.212Z,18.83
2023-11-01T06:33:05.449Z,11.30
2023-11-01T06:35:32.782Z,23.73
2023-11-01T06:37:59.935Z,17.73
2023-11-01T06:40:27.964Z,14.27
2023-11-01T06:42:54.996Z,17.60
2023-11-01T06:45:23.487Z,17.57
2023-11-01T06:47:50.551Z,20.43
2023-11-01T06:50:18.641Z,11.10
2023-11-01T06:52:46.961Z,15.47
2023-11-01T06:55:14.424Z,13.73
2023-11-01T06:57:45.763Z,16.90
2023-11-01T07:00:14.873Z,12.73
2023-11-01T07:02:42.105Z,11.50
2023-11-01T07:05:09.484Z,11.43
2023-11-01T07:07:36.695Z,14.83
2023-11-01T07:10:03.871Z,15.30
2023-11-01T07:12:30.875Z,14.53
2023-11-01T07:14:57.979Z,15.30
2023-11-01T07:17:27.974Z,11.00
2023-11-01T07:19:58.180Z,21.70
2023-11-01T07:22:25.227Z,15.60
2023-11-01T07:24:52.716Z,20.80
2023-11-01T07:27:19.778Z,19.27
2023-11-01T07:29:46.907Z,12.73
2023-11-01T07:32:14.019Z,14.77
2023-11-01T07:34:41.480Z,12.53
2023-11-01T07:37:08.941Z,12.23
2023-11-01T07:39:35.978Z,13.57
2023-11-01T07:42:03.045Z,15.17
2023-11-01T07:44:30.095Z,11.43
2023-11-01T07:46:57.069Z,14.33
2023-11-01T07:49:24.210Z,11.90
2023-11-01T07:51:51.386Z,14.03
2023-11-01T07:54:18.424Z,12.30
2023-11-01T07:56:47.444Z,13.90
2023-11-01T07:59:14.477Z,12.80
2023-11-01T08:01:42.247Z,18.90
2023-11-01T08:04:10.696Z,11.67
2023-11-01T08:06:39.985Z,10.53
2023-11-01T08:09:07.042Z,9.10
2023-11-01T08:11:34.140Z,14.53
2023-11-01T08:14:01.271Z,12.63
2023-11-01T08:16:29.668Z,11.83
2023-11-01T08:18:56.774Z,14.37
2023-11-01T08:21:23.876Z,17.33
2023-11-01T08:23:54.028Z,12.00
2023-11-01T08:26:21.268Z,10.47
2023-11-01T08:28:48.325Z,9.53
2023-11-01T08:31:16.284Z,11.13
2023-11-01T08:33:43.469Z,12.30
2023-11-01T08:36:11.337Z,11.60
2023-11-01T08:38:38.369Z,9.53
2023-11-01T08:41:05.623Z,9.33
2023-11-01T08:43:33.421Z,9.00
2023-11-01T08:46:01.176Z,9.77
2023-11-01T08:48:28.437Z,10.00
2023-11-01T08:50:55.557Z,10.97
2023-11-01T08:53:25.926Z,12.30
2023-11-01T08:55:54.942Z,11.77
2023-11-01T08:58:22.035Z,7.27
2023-11-01T09:00:49.270Z,10.67
2023-11-01T09:03:18.201Z,11.40
2023-11-01T09:05:45.383Z,8.97
2023-11-01T09:08:12.437Z,10.90
2023-11-01T09:10:40.464Z,8.53
2023-11-01T09:13:09.540Z,11.17
2023-11-01T09:15:36.586Z,7.77
2023-11-01T09:18:04.035Z,8.67
2023-11-01T09:20:31.128Z,5.93
2023-11-01T09:23:00.147Z,14.50
2023-11-01T09:25:28.609Z,16.30
2023-11-01T09:27:56.307Z,14.53
2023-11-01T09:30:23.346Z,9.27
2023-11-01T09:32:50.462Z,9.27
2023-11-01T09:35:17.534Z,15.50
2023-11-01T09:37:44.667Z,12.85
2023-11-01T09:40:13.194Z,7.80
2023-11-01T09:42:42.215Z,9.02
2023-11-01T09:45:15.173Z,10.37
2023-11-01T09:47:42.928Z,9.37
2023-11-01T09:50:11.864Z,5.27
2023-11-01T09:52:40.728Z,9.07
2023-11-01T09:55:08.289Z,8.53
2023-11-01T09:57:36.091Z,8.48
2023-11-01T10:00:05.074Z,8.63
2023-11-01T10:02:32.344Z,7.67
2023-11-01T10:04:59.523Z,6.03
2023-11-01T10:07:26.692Z,11.23
2023-11-01T10:09:56.564Z,6.97
2023-11-01T10:12:23.969Z,11.48
2023-11-01T10:14:50.960Z,11.85
2023-11-01T10:17:22.056Z,9.75
2023-11-01T10:20:04.720Z,5.80
2023-11-01T10:22:33.825Z,8.07
2023-11-01T10:25:00.905Z,10.50
2023-11-01T10:27:28.738Z,8.70
2023-11-01T10:30:02.857Z,8.05
2023-11-01T10:32:30.090Z,6.83
2023-11-01T10:35:11.481Z,9.98
2023-11-01T10:37:39.294Z,5.45
2023-11-01T10:40:14.086Z,5.68
2023-11-01T10:42:43.218Z,10.93
2023-11-01T10:45:11.162Z,9.43
2023-11-01T10:47:39.087Z,9.93
2023-11-01T10:50:07.433Z,5.70
2023-11-01T10:52:36.000Z,9.33
2023-11-01T10:55:04.835Z,8.10
2023-11-01T10:57:33.043Z,3.43
2023-11-01T11:00:21.090Z,9.90
2023-11-01T11:03:05.762Z,7.37
2023-11-01T11:05:34.814Z,7.70
2023-11-01T11:08:10.978Z,8.03
2023-11-01T11:10:40.625Z,4.67
2023-11-01T11:13:11.583Z,6.90
2023-11-01T11:16:02.022Z,17.75
2023-11-01T11:18:49.976Z,9.45
2023-11-01T11:21:51.229Z,3.78
2023-11-01T11:24:42.850Z,8.33
2023-11-01T11:27:52.339Z,9.53
2023-11-01T11:30:45.462Z,7.93
2023-11-01T11:33:13.264Z,9.23
2023-11-01T11:35:40.854Z,3.13
2023-11-01T11:38:33.660Z,10.30
2023-11-01T11:41:19.662Z,11.30
2023-11-01T11:44:00.162Z,9.55
2023-11-01T11:46:47.999Z,10.83
2023-11-01T11:49:27.794Z,10.67
2023-11-01T11:51:59.268Z,9.85
2023-11-01T11:54:29.325Z,8.70
2023-11-01T11:56:59.304Z,5.70
2023-11-01T11:59:29.048Z,8.80
2023-11-01T12:02:06.565Z,5.83
2023-11-01T12:04:37.811Z,10.33
2023-11-01T12:07:07.760Z,6.00
2023-11-01T12:09:35.116Z,10.03
2023-11-01T12:12:15.390Z,8.07
2023-11-01T12:14:48.431Z,12.87
2023-11-01T12:17:18.056Z,8.20
2023-11-01T12:19:47.252Z,10.13
2023-11-01T12:22:15.894Z,12.30
2023-11-01T12:24:45.990Z,22.20
2023-11-01T12:27:22.898Z,8.30
2023-11-01T12:29:52.275Z,11.47
2023-11-01T12:32:30.436Z,11.90
2023-11-01T12:34:57.423Z,10.47
2023-11-01T12:37:27.941Z,7.20
2023-11-01T12:40:15.610Z,6.37
2023-11-01T12:42:47.202Z,6.23
2023-11-01T12:45:16.224Z,10.90
2023-11-01T12:47:53.680Z,7.67
2023-11-01T12:50:25.471Z,9.07
2023-11-01T12:52:53.326Z,4.87
2023-11-01T12:55:21.440Z,7.80
2023-11-01T12:58:00.275Z,7.93
2023-11-01T13:00:32.362Z,7.60
2023-11-01T13:03:02.561Z,4.47
2023-11-01T13:05:29.941Z,8.20
2023-11-01T13:07:58.914Z,5.40
2023-11-01T13:10:26.280Z,8.83
2023-11-01T13:12:53.629Z,11.67
2023-11-01T13:15:21.602Z,7.50
2023-11-01T13:17:51.760Z,7.50
2023-11-01T13:20:19.095Z,9.17
2023-11-01T13:22:46.098Z,9.20
2023-11-01T13:25:13.236Z,9.40
2023-11-01T13:27:40.297Z,7.43
2023-11-01T13:30:08.305Z,6.70
2023-11-01T13:32:36.549Z,6.83
2023-11-01T13:35:05.553Z,5.20
2023-11-01T13:37:33.524Z,8.70
2023-11-01T13:40:01.847Z,9.20
2023-11-01T13:42:31.871Z,9.73
2023-11-01T13:44:59.241Z,10.07
2023-11-01T13:47:27.471Z,7.90
2023-11-01T13:49:55.606Z,4.43
2023-11-01T13:52:22.705Z,12.37
2023-11-01T13:54:51.943Z,7.27
2023-11-01T13:57:24.144Z,5.33
2023-11-01T13:59:54.496Z,10.93
2023-11-01T14:02:22.196Z,5.63
2023-11-01T14:04:50.256Z,6.83
2023-11-01T14:07:17.379Z,4.33
2023-11-01T14:09:45.368Z,5.70
2023-11-01T14:12:12.448Z,4.03
2023-11-01T14:14:39.821Z,5.67
2023-11-01T14:17:06.932Z,3.13
2023-11-01T14:19:34.571Z,4.20
2023-11-01T14:22:01.678Z,8.40
2023-11-01T14:24:28.799Z,8.87
2023-11-01T14:26:55.861Z,7.13
2023-11-01T14:29:23.668Z,6.57
2023-11-01T14:31:50.708Z,6.20
2023-11-01T14:34:17.739Z,8.43
2023-11-01T14:36:44.998Z,5.00
2023-11-01T14:39:26.217Z,5.03
2023-11-01T14:42:18.885Z,5.90
2023-11-01T14:44:47.965Z,7.07
2023-11-01T14:47:27.047Z,6.53
2023-11-01T14:49:54.131Z,4.10
2023-11-01T14:52:22.518Z,4.47
2023-11-01T14:54:49.602Z,5.43
2023-11-01T14:57:17.061Z,5.13
2023-11-01T14:59:44.308Z,5.40
2023-11-01T15:02:11.429Z,4.17
2023-11-01T15:04:38.618Z,4.20
2023-11-01T15:07:05.811Z,6.57
2023-11-01T15:09:35.267Z,5.47
2023-11-01T15:12:07.765Z,4.87
2023-11-01T15:14:34.819Z,4.40
2023-11-01T15:17:01.964Z,6.93
2023-11-01T15:19:29.081Z,5.07
2023-11-01T15:21:56.569Z,7.10
2023-11-01T15:24:28.259Z,5.13
2023-11-01T15:26:55.753Z,4.17
2023-11-01T15:29:23.171Z,5.60
2023-11-01T15:31:58.677Z,4.13
2023-11-01T15:34:30.788Z,7.13
2023-11-01T15:37:10.640Z,6.87
2023-11-01T15:39:40.693Z,4.30
2023-11-01T15:42:09.100Z,6.07
2023-11-01T15:44:37.594Z,8.73
2023-11-01T15:47:05.069Z,4.30
2023-11-01T15:49:32.164Z,6.30
2023-11-01T15:52:02.926Z,3.33
2023-11-01T15:54:52.398Z,6.10
2023-11-01T15:57:25.073Z,7.57
2023-11-01T15:59:52.744Z,3.37
2023-11-01T16:02:19.821Z,8.17
2023-11-01T16:04:47.108Z,6.60
2023-11-01T16:07:17.107Z,6.00
2023-11-01T16:09:45.448Z,4.70
2023-11-01T16:12:12.482Z,11.43
2023-11-01T16:14:40.577Z,9.53
2023-11-01T16:17:11.136Z,6.13
2023-11-01T16:19:38.798Z,6.07
2023-11-01T16:22:06.386Z,7.00
2023-11-01T16:24:34.526Z,6.87
2023-11-01T16:27:01.771Z,3.83
2023-11-01T16:29:29.018Z,5.43
2023-11-01T16:31:56.222Z,6.33
2023-11-01T16:34:26.017Z,6.10
2023-11-01T16:36:53.054Z,6.90
2023-11-01T16:39:20.366Z,7.23
2023-11-01T16:41:47.731Z,3.10
2023-11-01T16:44:14.794Z,5.97
2023-11-01T16:46:41.955Z,4.67
2023-11-01T16:49:12.129Z,4.77
2023-11-01T16:51:45.802Z,4.93
2023-11-01T16:54:14.436Z,8.47
2023-11-01T16:56:41.622Z,7.23
2023-11-01T16:59:18.131Z,6.73
2023-11-01T17:01:45.297Z,7.33
2023-11-01T17:04:13.503Z,3.70
2023-11-01T17:06:40.803Z,5.83
2023-11-01T17:09:07.925Z,5.90
2023-11-01T17:11:34.996Z,7.73
2023-11-01T17:14:06.282Z,4.90
2023-11-01T17:16:33.412Z,3.03
2023-11-01T17:19:00.430Z,3.87
2023-11-01T17:21:32.222Z,3.10
2023-11-01T17:24:00.280Z,6.07
2023-11-01T17:26:31.598Z,7.60
2023-11-01T17:29:00.955Z,3.07
2023-11-01T17:31:48.246Z,5.23
2023-11-01T17:34:31.756Z,3.57
2023-11-01T17:37:05.024Z,1.33
2023-11-01T17:39:44.520Z,2.37
2023-11-01T17:42:12.483Z,1.87
2023-11-01T17:44:41.869Z,2.63
2023-11-01T17:47:14.435Z,3.37
2023-11-01T17:49:50.335Z,3.63
2023-11-01T17:52:36.950Z,1.90
2023-11-01T17:55:10.215Z,2.20
2023-11-01T17:57:40.175Z,1.97
2023-11-01T18:00:09.329Z,3.30
2023-11-01T18:03:13.450Z,5.17
2023-11-01T18:05:41.776Z,4.70
2023-11-01T18:08:24.737Z,2.27
2023-11-01T18:10:55.017Z,4.43
2023-11-01T18:13:29.183Z,2.53
2023-11-01T18:16:11.207Z,2.10
2023-11-01T18:18:52.117Z,5.43
2023-11-01T18:21:21.791Z,1.37
2023-11-01T18:24:15.022Z,1.30
2023-11-01T18:26:43.147Z,3.00
2023-11-01T18:29:11.135Z,2.40
2023-11-01T18:31:46.234Z,2.00
2023-11-01T18:34:16.481Z,2.40
2023-11-01T18:36:47.789Z,5.77
2023-11-01T18:39:21.059Z,2.93
2023-11-01T18:41:48.125Z,4.23
2023-11-01T18:44:38.127Z,4.90
2023-11-01T18:47:08.174Z,3.47
2023-11-01T18:50:01.936Z,2.97
2023-11-01T18:52:29.199Z,3.70
2023-11-01T18:54:56.261Z,3.40
2023-11-01T18:57:36.369Z,2.70
2023-11-01T19:00:12.730Z,6.80
2023-11-01T19:02:39.750Z,4.83
2023-11-01T19:05:10.230Z,5.00
2023-11-01T19:07:45.219Z,5.03
2023-11-01T19:10:23.532Z,4.73
2023-11-01T19:13:13.990Z,5.93
2023-11-01T19:15:43.687Z,3.37
2023-11-01T19:18:20.301Z,3.70
2023-11-01T19:20:47.607Z,5.53
2023-11-01T19:23:15.227Z,3.57
2023-11-01T19:25:43.670Z,6.73
2023-11-01T19:28:27.114Z,3.77
2023-11-01T19:30:54.230Z,6.17
2023-11-01T19:33:29.227Z,7.07
2023-11-01T19:36:07.848Z,5.73
2023-11-01T19:38:44.619Z,3.13
2023-11-01T19:41:12.025Z,4.53
2023-11-01T19:43:39.122Z,4.40
2023-11-01T19:46:09.466Z,2.17
2023-11-01T19:48:41.541Z,5.07
2023-11-01T19:51:08.752Z,2.70
2023-11-01T19:53:35.941Z,5.07
2023-11-01T19:56:05.947Z,4.30
2023-11-01T19:58:33.168Z,8.43
2023-11-01T20:01:00.257Z,4.80
2023-11-01T20:03:27.479Z,3.87
2023-11-01T20:05:56.988Z,5.23
2023-11-01T20:08:24.166Z,4.10
2023-11-01T20:10:52.106Z,8.03
2023-11-01T20:13:20.170Z,6.67
2023-11-01T20:15:47.379Z,7.53
2023-11-01T20:18:15.545Z,3.70
2023-11-01T20:20:58.121Z,4.07
2023-11-01T20:23:26.777Z,3.13
2023-11-01T20:26:04.095Z,6.07
2023-11-01T20:28:31.175Z,8.20
2023-11-01T20:31:00.011Z,7.07
2023-11-01T20:33:27.182Z,4.73
2023-11-01T20:35:55.157Z,6.20
2023-11-01T20:38:22.559Z,7.87
2023-11-01T20:40:49.567Z,4.37
2023-11-01T20:43:16.637Z,9.30
2023-11-01T20:45:46.245Z,6.07
2023-11-01T20:48:14.737Z,7.93
2023-11-01T20:50:43.890Z,7.27
2023-11-01T20:53:11.087Z,8.77
2023-11-01T20:55:45.416Z,10.33
2023-11-01T20:58:12.608Z,5.47
2023-11-01T21:00:39.834Z,4.53
2023-11-01T21:03:07.198Z,9.57
2023-11-01T21:05:35.206Z,11.83
2023-11-01T21:08:02.386Z,6.53
2023-11-01T21:10:31.872Z,6.97
2023-11-01T21:12:58.976Z,9.50
2023-11-01T21:15:25.998Z,13.93
2023-11-01T21:18:07.710Z,6.67
2023-11-01T21:20:38.200Z,8.70
2023-11-01T21:23:11.096Z,8.03
2023-11-01T21:25:52.342Z,8.77
2023-11-01T21:28:19.938Z,8.67
2023-11-01T21:30:46.932Z,9.57
2023-11-01T21:33:14.390Z,10.77
2023-11-01T21:35:41.645Z,9.90
2023-11-01T21:38:08.897Z,5.87
2023-11-01T21:40:36.149Z,7.60
2023-11-01T21:43:04.385Z,7.30
2023-11-01T21:45:52.397Z,14.27
2023-11-01T21:48:25.127Z,6.70
2023-11-01T21:51:03.674Z,11.47
2023-11-01T21:53:43.399Z,12.47
2023-11-01T21:56:19.981Z,11.57
2023-11-01T21:59:01.486Z,10.77
2023-11-01T22:01:28.485Z,9.87
2023-11-01T22:03:58.980Z,11.43
2023-11-01T22:06:30.846Z,9.03
2023-11-01T22:09:09.820Z,6.93
2023-11-01T22:11:39.938Z,10.43
2023-11-01T22:14:12.952Z,6.87
2023-11-01T22:16:41.755Z,13.10
2023-11-01T22:19:42.356Z,6.73
2023-11-01T22:22:21.464Z,5.33
2023-11-01T22:25:00.280Z,8.77
2023-11-01T22:27:39.253Z,7.77
2023-11-01T22:30:08.624Z,7.93
2023-11-01T22:32:52.502Z,12.63
2023-11-01T22:35:45.312Z,9.17
2023-11-01T22:38:14.951Z,10.30
2023-11-01T22:40:43.660Z,8.27
2023-11-01T22:43:12.523Z,7.67
2023-11-01T22:45:42.039Z,7.50
2023-11-01T22:48:09.895Z,10.13
2023-11-01T22:50:37.126Z,7.90
2023-11-01T22:53:04.174Z,7.10
2023-11-01T22:55:40.973Z,8.13
2023-11-01T22:58:10.707Z,8.33
2023-11-01T23:00:37.918Z,12.80
2023-11-01T23:03:06.697Z,7.30
2023-11-01T23:05:34.968Z,9.77
2023-11-01T23:08:03.051Z,7.40
2023-11-01T23:10:32.368Z,5.73
2023-11-01T23:13:01.233Z,8.73
2023-11-01T23:15:28.763Z,10.57
2023-11-01T23:17:57.993Z,8.00
2023-11-01T23:20:26.233Z,8.13
2023-11-01T23:22:54.679Z,12.90
2023-11-01T23:25:31.106Z,12.53
2023-11-01T23:28:28.232Z,9.47
2023-11-01T23:30:55.284Z,12.27
2023-11-01T23:33:34.725Z,9.90
2023-11-01T23:36:03.909Z,9.07
2023-11-01T23:38:47.169Z,10.43
2023-11-01T23:41:43.081Z,9.27
2023-11-01T23:44:10.458Z,8.53
2023-11-01T23:46:38.056Z,14.60
2023-11-01T23:49:15.551Z,10.57
2023-11-01T23:51:58.366Z,10.10
2023-11-01T23:54:27.627Z,13.07
2023-11-01T23:56:54.797Z,10.37
2023-11-01T23:59:22.720Z,6.60
